HST,Max TemperatureF,Mean TemperatureF,Min TemperatureF,Max Dew PointF,MeanDew PointF,Min DewpointF,Max Humidity, Mean Humidity, Min Humidity, Max Sea Level PressureIn, Mean Sea Level PressureIn, Min Sea Level PressureIn, Max VisibilityMiles, Mean VisibilityMiles, Min VisibilityMiles, Max Wind SpeedMPH, Mean Wind SpeedMPH, Max Gust SpeedMPH,PrecipitationIn, CloudCover, Events, WindDirDegrees
2013-10-1,84,77,70,72,70,68,93,81,69,30.05,30.00,29.95,10,10,10,20,13,25,5.41,7,Rain-Thunderstorm,67
2013-10-2,84,81,77,73,71,70,82,76,69,30.01,29.97,29.93,10,10,5,21,13,23,0.05,6,Rain-Thunderstorm,93
2013-10-3,84,79,73,73,71,70,87,76,65,30.01,29.97,29.93,10,10,10,17,9,21,0.00,3,,78
2013-10-4,84,81,77,72,70,69,79,72,65,30.04,30.00,29.96,10,10,10,17,12,20,0.00,5,Rain,69
2013-10-5,84,81,78,72,70,67,74,70,65,30.04,30.01,29.96,10,10,10,17,14,22,T,6,Rain,59
2013-10-6,83,78,73,72,69,66,79,74,69,30.04,30.00,29.96,10,10,10,22,13,25,0.01,4,Rain,64
2013-10-7,84,80,76,73,71,69,79,74,69,30.10,30.04,29.98,10,10,10,17,11,21,T,4,,73
2013-10-8,83,79,74,73,70,68,87,78,69,30.10,30.07,30.04,10,10,10,24,14,29,0.08,6,Rain,70
2013-10-9,83,79,74,71,69,68,76,71,65,30.08,30.04,29.99,10,10,10,23,16,29,0.04,4,,62
2013-10-10,83,78,72,70,69,66,82,74,65,30.03,30.00,29.96,10,10,10,15,11,20,0.01,3,Rain,61
2013-10-11,83,79,74,73,71,69,94,82,69,30.05,30.00,29.95,10,10,10,17,8,21,0.02,6,Rain,51
2013-10-12,82,76,70,73,71,67,93,84,74,30.03,30.00,29.96,10,10,10,9,7,23,0.00,1,,327
2013-10-13,82,76,70,71,68,66,90,80,69,30.02,29.98,29.94,10,10,10,15,9,20,0.00,2,,338
2013-10-14,82,75,68,72,69,63,84,77,69,30.00,29.96,29.92,10,10,5,9,8,15,0.00,5,Rain-Thunderstorm,315
2013-10-15,83,77,70,72,70,67,93,81,69,30.00,29.97,29.92,10,10,10,12,8,15,T,3,Rain,28
2013-10-16,82,77,72,72,70,69,93,79,65,30.02,29.98,29.93,10,10,10,13,7,16,T,4,Rain,39
2013-10-17,82,77,71,71,69,66,90,80,69,30.01,29.97,29.94,10,10,10,10,6,16,0.00,3,,293
2013-10-18,81,75,68,71,68,63,90,80,69,29.99,29.94,29.89,10,10,10,10,7,12,0.00,1,,261
2013-10-19,82,75,68,70,67,63,100,79,58,29.91,29.88,29.84,10,10,7,14,7,17,0.01,5,Rain,273
2013-10-20,82,75,68,68,66,63,84,73,62,29.98,29.91,29.87,10,10,10,17,8,21,0.00,5,,327
2013-10-21,82,75,68,69,66,63,84,73,62,30.01,29.95,29.90,10,10,10,20,9,23,0.00,4,,324
2013-10-22,82,77,71,72,70,67,93,81,69,30.02,29.99,29.95,10,10,7,17,8,21,T,5,Rain,5
2013-10-23,82,78,73,72,70,68,87,78,69,30.05,29.99,29.95,10,10,10,21,11,23,0.01,5,Rain,40
2013-10-24,82,76,70,70,69,67,97,81,65,30.02,29.98,29.92,10,10,10,12,7,14,T,3,,47
2013-10-25,82,77,71,72,70,67,90,78,65,30.03,29.99,29.94,10,10,3,12,6,14,0.04,4,Rain,69
2013-10-26,82,77,71,74,71,65,94,84,74,30.04,30.00,29.95,10,7,1,20,6,23,0.23,6,Rain-Thunderstorm,244
2013-10-27,84,79,73,74,73,71,94,82,69,30.04,29.99,29.95,10,9,5,15,7,18,0.00,3,,251
2013-10-28,84,78,71,74,71,69,93,84,74,30.07,30.02,29.96,10,10,10,12,7,21,0.00,2,,16
2013-10-29,83,79,74,73,71,68,93,79,65,30.09,30.04,30.00,10,10,2,13,7,18,0.11,4,Rain,63
2013-10-30,82,79,76,72,69,68,79,72,65,30.13,30.08,30.03,10,9,2,15,10,25,0.00,4,Rain,44
2013-10-31,83,79,75,73,71,70,87,78,69,30.13,30.09,30.05,10,10,10,17,10,28,0.00,4,,55